sensor_id;sensor_type;location;lat;lon;timestamp;P1;durP1;ratioP1;P2;durP2;ratioP2
20619;SDS011;10469;42.720;23.252;2024-03-02T00:34:21;31.40;;;19.95;;
20619;SDS011;10469;42.720;23.252;2024-03-02T00:36:47;27.02;;;18.25;;
20619;SDS011;10469;42.720;23.252;2024-03-02T00:39:15;27.75;;;18.40;;
20619;SDS011;10469;42.720;23.252;2024-03-02T00:41:42;26.85;;;16.92;;
20619;SDS011;10469;42.720;23.252;2024-03-02T00:44:11;25.00;;;16.40;;
20619;SDS011;10469;42.720;23.252;2024-03-02T00:46:38;29.60;;;18.00;;
20619;SDS011;10469;42.720;23.252;2024-03-02T00:49:26;28.00;;;16.35;;
20619;SDS011;10469;42.720;23.252;2024-03-02T00:51:52;30.10;;;16.10;;
20619;SDS011;10469;42.720;23.252;2024-03-02T00:54:20;27.00;;;15.77;;
20619;SDS011;10469;42.720;23.252;2024-03-02T00:56:48;28.70;;;17.15;;
20619;SDS011;10469;42.720;23.252;2024-03-02T00:59:14;29.00;;;17.40;;
20619;SDS011;10469;42.720;23.252;2024-03-02T01:01:40;35.13;;;17.73;;
20619;SDS011;10469;42.720;23.252;2024-03-02T01:04:05;30.27;;;17.60;;
20619;SDS011;10469;42.720;23.252;2024-03-02T01:06:31;33.38;;;19.05;;
20619;SDS011;10469;42.720;23.252;2024-03-02T01:08:56;29.08;;;19.55;;
20619;SDS011;10469;42.720;23.252;2024-03-02T01:11:22;34.55;;;21.98;;
20619;SDS011;10469;42.720;23.252;2024-03-02T01:13:47;40.05;;;24.30;;
20619;SDS011;10469;42.720;23.252;2024-03-02T01:16:13;34.30;;;22.35;;
20619;SDS011;10469;42.720;23.252;2024-03-02T01:18:40;42.47;;;24.45;;
20619;SDS011;10469;42.720;23.252;2024-03-02T01:21:06;39.17;;;23.33;;
20619;SDS011;10469;42.720;23.252;2024-03-02T01:23:32;39.08;;;23.70;;
20619;SDS011;10469;42.720;23.252;2024-03-02T01:25:58;42.47;;;24.08;;
20619;SDS011;10469;42.720;23.252;2024-03-02T01:28:23;39.35;;;21.98;;
20619;SDS011;10469;42.720;23.252;2024-03-02T01:30:49;39.50;;;23.83;;
20619;SDS011;10469;42.720;23.252;2024-03-02T01:33:19;42.00;;;23.55;;
20619;SDS011;10469;42.720;23.252;2024-03-02T01:35:45;40.03;;;22.70;;
20619;SDS011;10469;42.720;23.252;2024-03-02T01:38:11;38.80;;;22.90;;
20619;SDS011;10469;42.720;23.252;2024-03-02T01:40:37;39.13;;;23.08;;
20619;SDS011;10469;42.720;23.252;2024-03-02T01:43:06;40.22;;;24.25;;
20619;SDS011;10469;42.720;23.252;2024-03-02T01:45:32;43.88;;;25.20;;
20619;SDS011;10469;42.720;23.252;2024-03-02T01:47:59;45.53;;;24.77;;
20619;SDS011;10469;42.720;23.252;2024-03-02T01:50:27;41.20;;;24.90;;
20619;SDS011;10469;42.720;23.252;2024-03-02T01:52:54;39.08;;;24.98;;
20619;SDS011;10469;42.720;23.252;2024-03-02T01:55:20;41.78;;;24.65;;
20619;SDS011;10469;42.720;23.252;2024-03-02T01:57:46;42.65;;;24.52;;
20619;SDS011;10469;42.720;23.252;2024-03-02T02:00:13;44.40;;;24.95;;
20619;SDS011;10469;42.720;23.252;2024-03-02T02:02:38;46.30;;;26.55;;
20619;SDS011;10469;42.720;23.252;2024-03-02T02:05:04;44.97;;;26.17;;
20619;SDS011;10469;42.720;23.252;2024-03-02T02:07:30;47.35;;;26.67;;
20619;SDS011;10469;42.720;23.252;2024-03-02T02:09:56;39.75;;;25.23;;
20619;SDS011;10469;42.720;23.252;2024-03-02T02:12:22;42.83;;;26.15;;
20619;SDS011;10469;42.720;23.252;2024-03-02T02:14:48;41.75;;;26.40;;
20619;SDS011;10469;42.720;23.252;2024-03-02T02:17:15;40.67;;;25.25;;
20619;SDS011;10469;42.720;23.252;2024-03-02T02:19:41;51.53;;;27.95;;
20619;SDS011;10469;42.720;23.252;2024-03-02T02:22:06;47.92;;;27.67;;
20619;SDS011;10469;42.720;23.252;2024-03-02T02:24:32;45.55;;;25.27;;
20619;SDS011;10469;42.720;23.252;2024-03-02T02:26:58;55.58;;;28.42;;
20619;SDS011;10469;42.720;23.252;2024-03-02T02:29:23;43.15;;;25.30;;
20619;SDS011;10469;42.720;23.252;2024-03-02T02:31:49;48.75;;;27.25;;
20619;SDS011;10469;42.720;23.252;2024-03-02T02:34:14;44.15;;;26.08;;
20619;SDS011;10469;42.720;23.252;2024-03-02T02:36:40;42.75;;;26.77;;
20619;SDS011;10469;42.720;23.252;2024-03-02T02:39:08;45.90;;;26.20;;
20619;SDS011;10469;42.720;23.252;2024-03-02T02:41:37;50.70;;;27.48;;
20619;SDS011;10469;42.720;23.252;2024-03-02T02:44:02;45.03;;;26.63;;
20619;SDS011;10469;42.720;23.252;2024-03-02T02:46:28;47.15;;;28.10;;
20619;SDS011;10469;42.720;23.252;2024-03-02T02:48:54;48.80;;;27.98;;
20619;SDS011;10469;42.720;23.252;2024-03-02T02:51:19;48.90;;;29.13;;
20619;SDS011;10469;42.720;23.252;2024-03-02T02:53:45;50.38;;;30.10;;
20619;SDS011;10469;42.720;23.252;2024-03-02T02:56:10;47.72;;;28.92;;
20619;SDS011;10469;42.720;23.252;2024-03-02T02:58:36;48.63;;;29.60;;
20619;SDS011;10469;42.720;23.252;2024-03-02T03:01:01;53.05;;;30.77;;
20619;SDS011;10469;42.720;23.252;2024-03-02T03:03:27;47.55;;;29.00;;
20619;SDS011;10469;42.720;23.252;2024-03-02T03:05:52;54.38;;;29.40;;
20619;SDS011;10469;42.720;23.252;2024-03-02T03:08:18;50.92;;;28.55;;
20619;SDS011;10469;42.720;23.252;2024-03-02T03:10:43;50.65;;;29.98;;
20619;SDS011;10469;42.720;23.252;2024-03-02T03:13:09;47.97;;;28.25;;
20619;SDS011;10469;42.720;23.252;2024-03-02T03:15:35;46.42;;;28.95;;
20619;SDS011;10469;42.720;23.252;2024-03-02T03:18:01;51.75;;;29.25;;
20619;SDS011;10469;42.720;23.252;2024-03-02T03:20:29;49.08;;;29.60;;
20619;SDS011;10469;42.720;23.252;2024-03-02T03:22:55;48.65;;;28.23;;
20619;SDS011;10469;42.720;23.252;2024-03-02T03:25:21;47.60;;;28.42;;
20619;SDS011;10469;42.720;23.252;2024-03-02T03:27:46;52.03;;;28.73;;
20619;SDS011;10469;42.720;23.252;2024-03-02T03:30:12;49.92;;;28.95;;
20619;SDS011;10469;42.720;23.252;2024-03-02T03:32:38;49.03;;;29.55;;
20619;SDS011;10469;42.720;23.252;2024-03-02T03:35:04;50.70;;;29.23;;
20619;SDS011;10469;42.720;23.252;2024-03-02T03:37:30;53.45;;;30.08;;
20619;SDS011;10469;42.720;23.252;2024-03-02T03:40:01;53.80;;;30.55;;
20619;SDS011;10469;42.720;23.252;2024-03-02T03:42:28;45.55;;;28.73;;
20619;SDS011;10469;42.720;23.252;2024-03-02T03:44:53;46.15;;;28.33;;
20619;SDS011;10469;42.720;23.252;2024-03-02T03:47:19;47.97;;;27.83;;
20619;SDS011;10469;42.720;23.252;2024-03-02T03:49:45;51.92;;;29.55;;
20619;SDS011;10469;42.720;23.252;2024-03-02T03:52:10;53.30;;;29.58;;
20619;SDS011;10469;42.720;23.252;2024-03-02T03:54:36;49.10;;;28.83;;
20619;SDS011;10469;42.720;23.252;2024-03-02T03:57:03;50.72;;;28.08;;
20619;SDS011;10469;42.720;23.252;2024-03-02T03:59:29;44.47;;;27.70;;
20619;SDS011;10469;42.720;23.252;2024-03-02T04:01:55;50.28;;;28.30;;
20619;SDS011;10469;42.720;23.252;2024-03-02T04:04:20;47.17;;;27.70;;
20619;SDS011;10469;42.720;23.252;2024-03-02T04:06:46;47.83;;;27.25;;
20619;SDS011;10469;42.720;23.252;2024-03-02T04:09:11;46.88;;;28.30;;
20619;SDS011;10469;42.720;23.252;2024-03-02T04:11:37;44.28;;;26.73;;
20619;SDS011;10469;42.720;23.252;2024-03-02T04:14:02;47.45;;;27.60;;
20619;SDS011;10469;42.720;23.252;2024-03-02T04:16:28;53.22;;;28.10;;
20619;SDS011;10469;42.720;23.252;2024-03-02T04:18:53;46.60;;;28.02;;
20619;SDS011;10469;42.720;23.252;2024-03-02T04:21:19;49.05;;;27.67;;
20619;SDS011;10469;42.720;23.252;2024-03-02T04:23:45;49.78;;;28.02;;
20619;SDS011;10469;42.720;23.252;2024-03-02T04:26:10;50.65;;;27.58;;
20619;SDS011;10469;42.720;23.252;2024-03-02T04:28:36;47.60;;;28.02;;
20619;SDS011;10469;42.720;23.252;2024-03-02T04:31:01;48.58;;;28.23;;
20619;SDS011;10469;42.720;23.252;2024-03-02T04:33:27;49.75;;;28.35;;
20619;SDS011;10469;42.720;23.252;2024-03-02T04:35:53;49.40;;;29.52;;
20619;SDS011;10469;42.720;23.252;2024-03-02T04:38:18;49.03;;;29.75;;
20619;SDS011;10469;42.720;23.252;2024-03-02T04:40:44;54.60;;;29.52;;
20619;SDS011;10469;42.720;23.252;2024-03-02T04:43:09;53.92;;;31.90;;
20619;SDS011;10469;42.720;23.252;2024-03-02T04:45:37;50.25;;;28.55;;
20619;SDS011;10469;42.720;23.252;2024-03-02T04:48:03;45.17;;;28.00;;
20619;SDS011;10469;42.720;23.252;2024-03-02T04:50:29;55.03;;;31.13;;
20619;SDS011;10469;42.720;23.252;2024-03-02T04:52:55;51.40;;;30.30;;
20619;SDS011;10469;42.720;23.252;2024-03-02T04:55:20;53.55;;;28.67;;
20619;SDS011;10469;42.720;23.252;2024-03-02T04:58:04;53.65;;;31.23;;
20619;SDS011;10469;42.720;23.252;2024-03-02T05:00:29;61.45;;;32.05;;
20619;SDS011;10469;42.720;23.252;2024-03-02T05:02:55;49.90;;;23.58;;
20619;SDS011;10469;42.720;23.252;2024-03-02T05:05:20;2.05;;;1.90;;
20619;SDS011;10469;42.720;23.252;2024-03-02T05:07:45;2.53;;;1.73;;
20619;SDS011;10469;42.720;23.252;2024-03-02T05:10:11;2.03;;;1.80;;
20619;SDS011;10469;42.720;23.252;2024-03-02T05:12:37;0.82;;;0.82;;
20619;SDS011;10469;42.720;23.252;2024-03-02T05:15:08;2.38;;;2.22;;
20619;SDS011;10469;42.720;23.252;2024-03-02T05:17:35;2.78;;;2.55;;
20619;SDS011;10469;42.720;23.252;2024-03-02T05:20:01;4.13;;;2.58;;
20619;SDS011;10469;42.720;23.252;2024-03-02T05:22:28;2.25;;;2.15;;
20619;SDS011;10469;42.720;23.252;2024-03-02T05:24:54;2.03;;;1.92;;
20619;SDS011;10469;42.720;23.252;2024-03-02T05:27:19;2.65;;;1.48;;
20619;SDS011;10469;42.720;23.252;2024-03-02T05:29:46;4.18;;;2.33;;
20619;SDS011;10469;42.720;23.252;2024-03-02T05:32:12;4.60;;;2.88;;
20619;SDS011;10469;42.720;23.252;2024-03-02T05:34:37;2.08;;;1.98;;
20619;SDS011;10469;42.720;23.252;2024-03-02T05:37:03;1.42;;;1.42;;
20619;SDS011;10469;42.720;23.252;2024-03-02T05:39:28;3.42;;;2.35;;
20619;SDS011;10469;42.720;23.252;2024-03-02T05:41:54;3.15;;;1.85;;
20619;SDS011;10469;42.720;23.252;2024-03-02T05:44:19;2.03;;;1.80;;
20619;SDS011;10469;42.720;23.252;2024-03-02T05:46:45;3.63;;;3.42;;
20619;SDS011;10469;42.720;23.252;2024-03-02T05:49:11;5.45;;;3.25;;
20619;SDS011;10469;42.720;23.252;2024-03-02T05:51:37;1.75;;;1.75;;
20619;SDS011;10469;42.720;23.252;2024-03-02T05:54:04;4.03;;;1.95;;
20619;SDS011;10469;42.720;23.252;2024-03-02T05:56:30;3.58;;;3.25;;
20619;SDS011;10469;42.720;23.252;2024-03-02T05:58:55;2.20;;;2.00;;
20619;SDS011;10469;42.720;23.252;2024-03-02T06:01:42;2.58;;;2.47;;
20619;SDS011;10469;42.720;23.252;2024-03-02T06:04:09;3.92;;;3.53;;
20619;SDS011;10469;42.720;23.252;2024-03-02T06:06:36;1.95;;;1.85;;
20619;SDS011;10469;42.720;23.252;2024-03-02T06:09:02;4.10;;;2.88;;
20619;SDS011;10469;42.720;23.252;2024-03-02T06:11:33;4.05;;;3.72;;
20619;SDS011;10469;42.720;23.252;2024-03-02T06:13:59;2.70;;;2.10;;
20619;SDS011;10469;42.720;23.252;2024-03-02T06:16:25;4.05;;;2.72;;
20619;SDS011;10469;42.720;23.252;2024-03-02T06:18:50;4.75;;;4.13;;
20619;SDS011;10469;42.720;23.252;2024-03-02T06:21:16;2.80;;;2.60;;
20619;SDS011;10469;42.720;23.252;2024-03-02T06:23:43;2.78;;;2.58;;
20619;SDS011;10469;42.720;23.252;2024-03-02T06:26:09;0.80;;;0.80;;
20619;SDS011;10469;42.720;23.252;2024-03-02T06:28:34;3.08;;;2.88;;
20619;SDS011;10469;42.720;23.252;2024-03-02T06:31:00;3.55;;;2.47;;
20619;SDS011;10469;42.720;23.252;2024-03-02T06:33:27;5.10;;;3.20;;
20619;SDS011;10469;42.720;23.252;2024-03-02T06:35:53;3.67;;;3.10;;
20619;SDS011;10469;42.720;23.252;2024-03-02T06:38:19;1.67;;;1.63;;
20619;SDS011;10469;42.720;23.252;2024-03-02T06:40:44;4.38;;;3.00;;
20619;SDS011;10469;42.720;23.252;2024-03-02T06:43:10;3.97;;;3.00;;
20619;SDS011;10469;42.720;23.252;2024-03-02T06:45:36;4.85;;;4.22;;
20619;SDS011;10469;42.720;23.252;2024-03-02T06:48:01;2.05;;;1.95;;
20619;SDS011;10469;42.720;23.252;2024-03-02T06:50:27;0.90;;;0.90;;
20619;SDS011;10469;42.720;23.252;2024-03-02T06:52:53;5.15;;;2.33;;
20619;SDS011;10469;42.720;23.252;2024-03-02T06:55:21;2.13;;;2.03;;
20619;SDS011;10469;42.720;23.252;2024-03-02T06:57:47;4.15;;;2.80;;
20619;SDS011;10469;42.720;23.252;2024-03-02T07:00:13;1.15;;;1.15;;
20619;SDS011;10469;42.720;23.252;2024-03-02T07:02:39;5.22;;;2.83;;
20619;SDS011;10469;42.720;23.252;2024-03-02T07:05:06;1.85;;;1.75;;
20619;SDS011;10469;42.720;23.252;2024-03-02T07:07:33;3.85;;;3.55;;
20619;SDS011;10469;42.720;23.252;2024-03-02T07:10:00;3.88;;;3.35;;
20619;SDS011;10469;42.720;23.252;2024-03-02T07:12:26;3.92;;;2.30;;
20619;SDS011;10469;42.720;23.252;2024-03-02T07:14:51;1.75;;;1.65;;
20619;SDS011;10469;42.720;23.252;2024-03-02T07:17:29;2.35;;;2.20;;
20619;SDS011;10469;42.720;23.252;2024-03-02T07:19:55;2.28;;;2.17;;
20619;SDS011;10469;42.720;23.252;2024-03-02T07:22:21;1.83;;;1.73;;
20619;SDS011;10469;42.720;23.252;2024-03-02T07:24:53;1.10;;;1.10;;
20619;SDS011;10469;42.720;23.252;2024-03-02T07:27:19;1.17;;;1.17;;
20619;SDS011;10469;42.720;23.252;2024-03-02T07:29:45;1.80;;;1.70;;
20619;SDS011;10469;42.720;23.252;2024-03-02T07:32:10;7.05;;;2.95;;
20619;SDS011;10469;42.720;23.252;2024-03-02T07:34:36;5.15;;;1.88;;
20619;SDS011;10469;42.720;23.252;2024-03-02T07:37:02;2.10;;;2.00;;
20619;SDS011;10469;42.720;23.252;2024-03-02T07:39:28;1.45;;;1.35;;
20619;SDS011;10469;42.720;23.252;2024-03-02T07:41:55;3.88;;;2.60;;
20619;SDS011;10469;42.720;23.252;2024-03-02T07:44:20;5.60;;;4.75;;
20619;SDS011;10469;42.720;23.252;2024-03-02T07:46:46;2.00;;;1.90;;
20619;SDS011;10469;42.720;23.252;2024-03-02T07:49:15;3.67;;;2.88;;
20619;SDS011;10469;42.720;23.252;2024-03-02T07:51:40;1.42;;;1.42;;
20619;SDS011;10469;42.720;23.252;2024-03-02T07:54:06;3.30;;;3.08;;
20619;SDS011;10469;42.720;23.252;2024-03-02T07:56:31;1.95;;;1.85;;
20619;SDS011;10469;42.720;23.252;2024-03-02T07:59:01;4.47;;;2.42;;
20619;SDS011;10469;42.720;23.252;2024-03-02T08:01:28;1.95;;;1.65;;
20619;SDS011;10469;42.720;23.252;2024-03-02T08:03:57;10.30;;;3.38;;
20619;SDS011;10469;42.720;23.252;2024-03-02T08:06:24;2.78;;;2.58;;
20619;SDS011;10469;42.720;23.252;2024-03-02T08:08:52;2.85;;;2.65;;
20619;SDS011;10469;42.720;23.252;2024-03-02T08:11:19;2.25;;;2.15;;
20619;SDS011;10469;42.720;23.252;2024-03-02T08:13:44;8.13;;;3.03;;
20619;SDS011;10469;42.720;23.252;2024-03-02T08:16:10;9.57;;;3.05;;
20619;SDS011;10469;42.720;23.252;2024-03-02T08:18:35;1.35;;;1.35;;
20619;SDS011;10469;42.720;23.252;2024-03-02T08:21:01;4.70;;;1.70;;
20619;SDS011;10469;42.720;23.252;2024-03-02T08:23:26;1.65;;;1.58;;
20619;SDS011;10469;42.720;23.252;2024-03-02T08:25:52;1.42;;;1.33;;
20619;SDS011;10469;42.720;23.252;2024-03-02T08:28:18;1.35;;;1.35;;
20619;SDS011;10469;42.720;23.252;2024-03-02T08:30:43;3.13;;;2.92;;
20619;SDS011;10469;42.720;23.252;2024-03-02T08:33:09;0.60;;;0.60;;
20619;SDS011;10469;42.720;23.252;2024-03-02T08:35:34;2.78;;;2.35;;
20619;SDS011;10469;42.720;23.252;2024-03-02T08:38:03;0.60;;;0.60;;
20619;SDS011;10469;42.720;23.252;2024-03-02T08:40:29;2.85;;;2.65;;
20619;SDS011;10469;42.720;23.252;2024-03-02T08:42:55;1.52;;;1.52;;
20619;SDS011;10469;42.720;23.252;2024-03-02T08:45:21;1.40;;;1.35;;
20619;SDS011;10469;42.720;23.252;2024-03-02T08:48:07;2.13;;;2.03;;
20619;SDS011;10469;42.720;23.252;2024-03-02T08:50:33;1.65;;;1.58;;
20619;SDS011;10469;42.720;23.252;2024-03-02T08:52:59;4.53;;;3.85;;
20619;SDS011;10469;42.720;23.252;2024-03-02T08:55:26;1.75;;;1.65;;
20619;SDS011;10469;42.720;23.252;2024-03-02T08:57:52;1.05;;;1.05;;
20619;SDS011;10469;42.720;23.252;2024-03-02T09:00:23;3.97;;;2.50;;
20619;SDS011;10469;42.720;23.252;2024-03-02T09:39:24;64.18;;;31.02;;
20619;SDS011;10469;42.720;23.252;2024-03-02T09:41:51;62.42;;;32.67;;
20619;SDS011;10469;42.720;23.252;2024-03-02T09:44:17;64.68;;;32.30;;
20619;SDS011;10469;42.720;23.252;2024-03-02T09:46:43;63.75;;;34.55;;
20619;SDS011;10469;42.720;23.252;2024-03-02T09:49:10;59.97;;;32.25;;
20619;SDS011;10469;42.720;23.252;2024-03-02T09:51:39;62.58;;;32.88;;
20619;SDS011;10469;42.720;23.252;2024-03-02T09:54:11;57.60;;;32.30;;
20619;SDS011;10469;42.720;23.252;2024-03-02T09:56:38;61.38;;;31.30;;
20619;SDS011;10469;42.720;23.252;2024-03-02T09:59:05;61.17;;;32.53;;
20619;SDS011;10469;42.720;23.252;2024-03-02T10:01:32;56.20;;;31.58;;
20619;SDS011;10469;42.720;23.252;2024-03-02T10:04:01;59.53;;;32.58;;
20619;SDS011;10469;42.720;23.252;2024-03-02T10:06:29;65.72;;;36.03;;
20619;SDS011;10469;42.720;23.252;2024-03-02T10:08:55;57.97;;;31.80;;
20619;SDS011;10469;42.720;23.252;2024-03-02T10:11:28;57.08;;;32.15;;
20619;SDS011;10469;42.720;23.252;2024-03-02T10:16:36;59.75;;;32.58;;
20619;SDS011;10469;42.720;23.252;2024-03-02T10:21:42;60.60;;;32.80;;
20619;SDS011;10469;42.720;23.252;2024-03-02T10:24:09;62.55;;;32.05;;
20619;SDS011;10469;42.720;23.252;2024-03-02T10:26:38;63.20;;;33.75;;
20619;SDS011;10469;42.720;23.252;2024-03-02T10:29:04;57.47;;;31.88;;
20619;SDS011;10469;42.720;23.252;2024-03-02T10:31:31;67.43;;;34.83;;
20619;SDS011;10469;42.720;23.252;2024-03-02T10:33:58;61.47;;;31.85;;
20619;SDS011;10469;42.720;23.252;2024-03-02T10:36:25;59.92;;;33.30;;
20619;SDS011;10469;42.720;23.252;2024-03-02T10:38:51;63.95;;;33.60;;
20619;SDS011;10469;42.720;23.252;2024-03-02T10:41:23;61.38;;;33.80;;
20619;SDS011;10469;42.720;23.252;2024-03-02T10:43:53;60.65;;;34.10;;
20619;SDS011;10469;42.720;23.252;2024-03-02T12:39:29;38.47;;;23.17;;
20619;SDS011;10469;42.720;23.252;2024-03-02T12:41:55;40.33;;;22.25;;
20619;SDS011;10469;42.720;23.252;2024-03-02T12:44:21;39.75;;;22.73;;
20619;SDS011;10469;42.720;23.252;2024-03-02T12:46:46;42.35;;;22.95;;
20619;SDS011;10469;42.720;23.252;2024-03-02T12:49:21;39.20;;;22.15;;
20619;SDS011;10469;42.720;23.252;2024-03-02T12:51:51;35.15;;;21.38;;
20619;SDS011;10469;42.720;23.252;2024-03-02T12:54:21;35.97;;;21.63;;
20619;SDS011;10469;42.720;23.252;2024-03-02T12:56:47;38.30;;;22.80;;
20619;SDS011;10469;42.720;23.252;2024-03-02T12:59:21;40.33;;;21.42;;
20619;SDS011;10469;42.720;23.252;2024-03-02T13:01:55;33.03;;;21.13;;
20619;SDS011;10469;42.720;23.252;2024-03-02T13:04:26;36.38;;;21.65;;
20619;SDS011;10469;42.720;23.252;2024-03-02T13:06:54;38.03;;;21.38;;
20619;SDS011;10469;42.720;23.252;2024-03-02T13:09:22;31.23;;;20.63;;
20619;SDS011;10469;42.720;23.252;2024-03-02T13:11:49;34.75;;;21.05;;
20619;SDS011;10469;42.720;23.252;2024-03-02T13:14:14;35.22;;;20.73;;
20619;SDS011;10469;42.720;23.252;2024-03-02T13:16:40;34.20;;;19.95;;
20619;SDS011;10469;42.720;23.252;2024-03-02T13:19:11;36.55;;;21.65;;
20619;SDS011;10469;42.720;23.252;2024-03-02T13:21:37;37.58;;;22.08;;
20619;SDS011;10469;42.720;23.252;2024-03-02T13:24:03;35.45;;;22.23;;
20619;SDS011;10469;42.720;23.252;2024-03-02T13:26:30;34.50;;;20.92;;
20619;SDS011;10469;42.720;23.252;2024-03-02T13:28:55;38.58;;;22.02;;
20619;SDS011;10469;42.720;23.252;2024-03-02T13:31:21;33.85;;;20.50;;
20619;SDS011;10469;42.720;23.252;2024-03-02T13:33:47;34.05;;;21.67;;
20619;SDS011;10469;42.720;23.252;2024-03-02T13:36:13;35.80;;;21.60;;
20619;SDS011;10469;42.720;23.252;2024-03-02T13:38:38;35.95;;;21.92;;
20619;SDS011;10469;42.720;23.252;2024-03-02T13:41:04;34.92;;;21.17;;
20619;SDS011;10469;42.720;23.252;2024-03-02T13:43:30;34.50;;;21.77;;
20619;SDS011;10469;42.720;23.252;2024-03-02T13:46:04;34.50;;;21.70;;
20619;SDS011;10469;42.720;23.252;2024-03-02T13:48:29;37.17;;;21.40;;
20619;SDS011;10469;42.720;23.252;2024-03-02T13:50:56;34.55;;;21.05;;
20619;SDS011;10469;42.720;23.252;2024-03-02T13:53:22;38.63;;;22.35;;
20619;SDS011;10469;42.720;23.252;2024-03-02T13:55:48;31.20;;;20.33;;
20619;SDS011;10469;42.720;23.252;2024-03-02T13:58:14;34.25;;;20.73;;
20619;SDS011;10469;42.720;23.252;2024-03-02T14:00:40;35.08;;;21.10;;
20619;SDS011;10469;42.720;23.252;2024-03-02T14:03:05;36.60;;;20.83;;
20619;SDS011;10469;42.720;23.252;2024-03-02T14:05:31;38.55;;;22.42;;
20619;SDS011;10469;42.720;23.252;2024-03-02T14:07:58;39.90;;;24.20;;
20619;SDS011;10469;42.720;23.252;2024-03-02T14:10:27;34.10;;;20.48;;
20619;SDS011;10469;42.720;23.252;2024-03-02T14:12:53;35.38;;;22.45;;
20619;SDS011;10469;42.720;23.252;2024-03-02T14:15:20;40.13;;;23.05;;
20619;SDS011;10469;42.720;23.252;2024-03-02T14:17:46;39.47;;;22.10;;
20619;SDS011;10469;42.720;23.252;2024-03-02T14:20:12;38.72;;;22.80;;
20619;SDS011;10469;42.720;23.252;2024-03-02T14:22:38;41.45;;;22.52;;
20619;SDS011;10469;42.720;23.252;2024-03-02T14:25:05;37.95;;;22.73;;
20619;SDS011;10469;42.720;23.252;2024-03-02T14:27:30;33.13;;;20.92;;
20619;SDS011;10469;42.720;23.252;2024-03-02T14:29:56;34.55;;;21.83;;
20619;SDS011;10469;42.720;23.252;2024-03-02T14:32:22;33.42;;;22.08;;
20619;SDS011;10469;42.720;23.252;2024-03-02T14:34:48;33.35;;;20.15;;
20619;SDS011;10469;42.720;23.252;2024-03-02T14:37:14;35.22;;;21.67;;
20619;SDS011;10469;42.720;23.252;2024-03-02T14:39:40;31.58;;;20.40;;
20619;SDS011;10469;42.720;23.252;2024-03-02T14:42:06;36.13;;;21.85;;
20619;SDS011;10469;42.720;23.252;2024-03-02T14:44:33;31.63;;;21.25;;
20619;SDS011;10469;42.720;23.252;2024-03-02T14:46:59;37.72;;;22.60;;
20619;SDS011;10469;42.720;23.252;2024-03-02T14:49:27;36.45;;;21.20;;
20619;SDS011;10469;42.720;23.252;2024-03-02T14:51:53;38.53;;;22.27;;
20619;SDS011;10469;42.720;23.252;2024-03-02T14:54:18;39.53;;;22.15;;
20619;SDS011;10469;42.720;23.252;2024-03-02T14:56:44;34.60;;;22.27;;
20619;SDS011;10469;42.720;23.252;2024-03-02T14:59:09;33.47;;;21.48;;
20619;SDS011;10469;42.720;23.252;2024-03-02T15:01:35;34.35;;;21.05;;
20619;SDS011;10469;42.720;23.252;2024-03-02T15:04:02;36.78;;;21.90;;
20619;SDS011;10469;42.720;23.252;2024-03-02T15:06:28;38.33;;;22.65;;
20619;SDS011;10469;42.720;23.252;2024-03-02T15:08:54;37.50;;;22.73;;
20619;SDS011;10469;42.720;23.252;2024-03-02T15:11:20;35.90;;;23.83;;
20619;SDS011;10469;42.720;23.252;2024-03-02T15:13:47;42.47;;;25.00;;
20619;SDS011;10469;42.720;23.252;2024-03-02T15:16:13;39.03;;;23.92;;
20619;SDS011;10469;42.720;23.252;2024-03-02T15:18:38;34.42;;;22.45;;
20619;SDS011;10469;42.720;23.252;2024-03-02T15:21:04;38.65;;;23.80;;
20619;SDS011;10469;42.720;23.252;2024-03-02T15:23:30;34.70;;;22.83;;
20619;SDS011;10469;42.720;23.252;2024-03-02T15:25:55;40.00;;;24.48;;
20619;SDS011;10469;42.720;23.252;2024-03-02T15:28:21;38.60;;;23.65;;
20619;SDS011;10469;42.720;23.252;2024-03-02T15:30:47;39.00;;;25.98;;
20619;SDS011;10469;42.720;23.252;2024-03-02T15:33:13;39.60;;;25.17;;
20619;SDS011;10469;42.720;23.252;2024-03-02T15:35:38;41.70;;;25.55;;
20619;SDS011;10469;42.720;23.252;2024-03-02T15:38:04;46.67;;;26.90;;
20619;SDS011;10469;42.720;23.252;2024-03-02T15:40:30;44.67;;;27.27;;
20619;SDS011;10469;42.720;23.252;2024-03-02T15:42:55;49.90;;;27.63;;
20619;SDS011;10469;42.720;23.252;2024-03-02T15:45:21;37.13;;;24.88;;
20619;SDS011;10469;42.720;23.252;2024-03-02T15:47:46;38.85;;;25.90;;
20619;SDS011;10469;42.720;23.252;2024-03-02T15:50:12;47.50;;;23.63;;
20619;SDS011;10469;42.720;23.252;2024-03-02T15:52:39;39.70;;;25.90;;
20619;SDS011;10469;42.720;23.252;2024-03-02T15:55:05;34.50;;;23.55;;
20619;SDS011;10469;42.720;23.252;2024-03-02T15:57:32;39.10;;;24.13;;
20619;SDS011;10469;42.720;23.252;2024-03-02T15:59:58;41.38;;;25.95;;
20619;SDS011;10469;42.720;23.252;2024-03-02T16:02:23;43.03;;;25.92;;
20619;SDS011;10469;42.720;23.252;2024-03-02T16:04:49;43.50;;;27.42;;
20619;SDS011;10469;42.720;23.252;2024-03-02T16:07:15;51.80;;;27.58;;
20619;SDS011;10469;42.720;23.252;2024-03-02T16:09:43;38.35;;;23.33;;
20619;SDS011;10469;42.720;23.252;2024-03-02T16:12:08;39.10;;;23.95;;
20619;SDS011;10469;42.720;23.252;2024-03-02T16:14:34;35.05;;;22.63;;
20619;SDS011;10469;42.720;23.252;2024-03-02T16:17:00;34.92;;;20.35;;
20619;SDS011;10469;42.720;23.252;2024-03-02T16:19:26;34.92;;;19.85;;
20619;SDS011;10469;42.720;23.252;2024-03-02T16:21:51;33.30;;;18.67;;
20619;SDS011;10469;42.720;23.252;2024-03-02T16:24:17;32.00;;;18.77;;
20619;SDS011;10469;42.720;23.252;2024-03-02T16:26:42;29.80;;;18.70;;
20619;SDS011;10469;42.720;23.252;2024-03-02T16:29:08;31.13;;;19.45;;
20619;SDS011;10469;42.720;23.252;2024-03-02T16:31:33;30.60;;;18.95;;
20619;SDS011;10469;42.720;23.252;2024-03-02T16:33:59;30.08;;;18.77;;
20619;SDS011;10469;42.720;23.252;2024-03-02T16:36:25;34.45;;;20.08;;
20619;SDS011;10469;42.720;23.252;2024-03-02T16:38:53;29.08;;;18.10;;
20619;SDS011;10469;42.720;23.252;2024-03-02T16:41:19;29.65;;;18.50;;
20619;SDS011;10469;42.720;23.252;2024-03-02T16:43:44;33.53;;;18.17;;
20619;SDS011;10469;42.720;23.252;2024-03-02T16:46:10;33.45;;;19.02;;
20619;SDS011;10469;42.720;23.252;2024-03-02T16:48:36;35.78;;;18.25;;
20619;SDS011;10469;42.720;23.252;2024-03-02T16:51:01;41.13;;;18.55;;
20619;SDS011;10469;42.720;23.252;2024-03-02T16:53:29;42.90;;;19.67;;
20619;SDS011;10469;42.720;23.252;2024-03-02T16:55:58;40.00;;;19.55;;
20619;SDS011;10469;42.720;23.252;2024-03-02T16:58:24;40.90;;;19.15;;
20619;SDS011;10469;42.720;23.252;2024-03-02T17:00:50;41.55;;;18.13;;
20619;SDS011;10469;42.720;23.252;2024-03-02T17:03:15;34.67;;;18.88;;
20619;SDS011;10469;42.720;23.252;2024-03-02T17:05:43;42.15;;;19.45;;
20619;SDS011;10469;42.720;23.252;2024-03-02T17:08:08;41.90;;;19.48;;
20619;SDS011;10469;42.720;23.252;2024-03-02T17:10:34;40.08;;;19.95;;
20619;SDS011;10469;42.720;23.252;2024-03-02T17:12:59;39.20;;;19.67;;
20619;SDS011;10469;42.720;23.252;2024-03-02T17:15:25;37.92;;;21.38;;
20619;SDS011;10469;42.720;23.252;2024-03-02T17:17:51;34.88;;;19.85;;
20619;SDS011;10469;42.720;23.252;2024-03-02T17:20:16;41.70;;;18.23;;